createdAt,value
2018-09-05T00:01:48.030Z,21.50
2018-09-05T00:04:16.415Z,21.40
2018-09-05T00:06:44.728Z,21.40
2018-09-05T00:09:13.050Z,21.40
2018-09-05T00:11:41.399Z,21.40
2018-09-05T00:14:10.122Z,21.30
2018-09-05T00:16:38.510Z,21.30
2018-09-05T00:19:06.936Z,21.30
2018-09-05T00:21:35.263Z,21.20
2018-09-05T00:24:03.717Z,21.20
2018-09-05T00:26:32.131Z,21.10
2018-09-05T00:29:00.611Z,21.10
2018-09-05T00:31:28.948Z,21.10
2018-09-05T00:33:57.360Z,21.00
2018-09-05T00:36:25.747Z,21.00
2018-09-05T00:38:54.134Z,21.00
2018-09-05T00:41:22.563Z,20.90
2018-09-05T00:43:50.904Z,20.80
2018-09-05T00:46:19.285Z,20.90
2018-09-05T00:48:47.711Z,20.80
2018-09-05T00:51:16.114Z,20.80
2018-09-05T00:54:17.145Z,20.80
2018-09-05T00:56:45.464Z,20.70
2018-09-05T00:59:13.820Z,20.60
2018-09-05T01:01:42.224Z,20.50
2018-09-05T01:04:10.635Z,20.50
2018-09-05T01:06:38.951Z,20.50
2018-09-05T01:09:08.236Z,20.40
2018-09-05T01:11:36.914Z,20.40
2018-09-05T01:14:05.751Z,20.40
2018-09-05T01:16:34.188Z,20.30
2018-09-05T01:19:02.861Z,20.40
2018-09-05T01:21:31.350Z,20.30
2018-09-05T01:23:59.662Z,20.30
2018-09-05T01:26:28.016Z,20.30
2018-09-05T01:28:56.406Z,20.30
2018-09-05T01:31:25.013Z,20.20
2018-09-05T01:33:53.410Z,20.20
2018-09-05T01:36:21.797Z,20.20
2018-09-05T01:38:50.081Z,20.20
2018-09-05T01:41:18.641Z,20.20
2018-09-05T01:43:46.964Z,20.20
2018-09-05T01:46:15.260Z,20.20
2018-09-05T01:48:43.599Z,20.10
2018-09-05T01:51:11.955Z,20.10
2018-09-05T01:53:40.360Z,20.00
2018-09-05T01:56:08.792Z,20.00
2018-09-05T01:58:37.199Z,20.00
2018-09-05T02:01:05.626Z,20.00
2018-09-05T02:03:34.124Z,20.00
2018-09-05T02:06:02.534Z,19.90
2018-09-05T02:08:30.915Z,19.90
2018-09-05T02:10:59.255Z,19.80
2018-09-05T02:13:27.728Z,19.80
2018-09-05T02:15:56.159Z,19.70
2018-09-05T02:18:24.586Z,19.70
2018-09-05T02:20:52.934Z,19.70
2018-09-05T02:23:21.388Z,19.60
2018-09-05T02:25:49.800Z,19.60
2018-09-05T02:28:18.207Z,19.60
2018-09-05T02:30:46.597Z,19.60
2018-09-05T02:33:14.955Z,19.60
2018-09-05T02:35:43.274Z,19.40
2018-09-05T02:38:11.571Z,19.20
2018-09-05T02:40:39.953Z,19.20
2018-09-05T02:43:08.423Z,19.20
2018-09-05T02:45:36.803Z,19.20
2018-09-05T02:48:05.337Z,19.20
2018-09-05T02:50:33.721Z,19.20
2018-09-05T02:53:02.196Z,19.20
2018-09-05T02:55:35.927Z,19.20
2018-09-05T02:58:04.326Z,19.20
2018-09-05T03:00:32.762Z,19.00
2018-09-05T03:03:01.146Z,19.00
2018-09-05T03:05:29.554Z,19.00
2018-09-05T03:07:57.998Z,19.00
2018-09-05T03:10:26.391Z,19.00
2018-09-05T03:12:54.717Z,18.90
2018-09-05T03:15:23.115Z,18.80
2018-09-05T03:17:51.537Z,18.80
2018-09-05T03:20:19.939Z,18.90
2018-09-05T03:22:48.396Z,18.90
2018-09-05T03:25:16.779Z,18.90
2018-09-05T03:27:45.302Z,18.90
2018-09-05T03:30:13.702Z,18.90
2018-09-05T03:32:42.233Z,18.90
2018-09-05T03:35:10.539Z,18.80
2018-09-05T03:37:38.838Z,18.80
2018-09-05T03:40:07.232Z,18.80
2018-09-05T03:42:35.575Z,18.80
2018-09-05T03:45:03.935Z,18.80
2018-09-05T03:47:32.310Z,18.80
2018-09-05T03:50:00.633Z,18.80
2018-09-05T03:52:29.215Z,18.70
2018-09-05T03:54:57.560Z,18.70
2018-09-05T03:57:25.908Z,18.70
2018-09-05T03:59:54.254Z,18.70
2018-09-05T04:02:22.627Z,18.70
2018-09-05T04:04:50.999Z,18.70
2018-09-05T04:07:19.282Z,18.60
2018-09-05T04:09:47.705Z,18.60
2018-09-05T04:12:16.086Z,18.60
2018-09-05T04:14:44.424Z,18.60
2018-09-05T04:17:12.812Z,18.50
2018-09-05T04:19:41.231Z,18.50
2018-09-05T04:22:09.646Z,18.50
2018-09-05T04:24:38.083Z,18.40
2018-09-05T04:27:06.712Z,18.40
2018-09-05T04:29:35.212Z,18.40
2018-09-05T04:32:03.462Z,18.40
2018-09-05T04:34:31.843Z,18.40
2018-09-05T04:37:00.229Z,18.40
2018-09-05T04:39:28.605Z,18.40
2018-09-05T04:41:57.023Z,18.40
2018-09-05T04:44:25.403Z,18.40
2018-09-05T04:46:53.694Z,18.40
2018-09-05T04:49:22.036Z,18.40
2018-09-05T04:51:50.327Z,18.30
2018-09-05T04:54:18.655Z,18.30
2018-09-05T04:56:46.941Z,18.20
2018-09-05T04:59:15.259Z,18.20
2018-09-05T05:01:43.548Z,18.20
2018-09-05T05:04:11.859Z,18.20
2018-09-05T05:06:40.156Z,18.20
2018-09-05T05:09:10.503Z,18.10
2018-09-05T05:11:39.079Z,18.20
2018-09-05T05:14:07.367Z,18.20
2018-09-05T05:16:35.701Z,18.20
2018-09-05T05:19:04.237Z,18.20
2018-09-05T05:21:32.704Z,18.10
2018-09-05T05:24:01.029Z,18.10
2018-09-05T05:26:29.670Z,18.00
2018-09-05T05:28:58.024Z,18.00
2018-09-05T05:31:26.318Z,18.10
2018-09-05T05:33:54.714Z,18.10
2018-09-05T05:36:22.998Z,18.20
2018-09-05T05:38:51.558Z,18.10
2018-09-05T05:41:19.945Z,18.20
2018-09-05T05:43:48.320Z,18.20
2018-09-05T05:46:16.699Z,18.20
2018-09-05T05:48:44.998Z,18.20
2018-09-05T05:51:13.285Z,18.20
2018-09-05T05:53:41.599Z,18.30
2018-09-05T05:56:09.917Z,18.30
2018-09-05T05:58:38.423Z,18.30
2018-09-05T06:01:06.739Z,18.40
2018-09-05T06:03:35.030Z,18.40
2018-09-05T06:06:03.480Z,18.40
2018-09-05T06:08:32.151Z,18.50
2018-09-05T06:11:00.492Z,18.50
2018-09-05T06:13:28.804Z,18.50
2018-09-05T06:15:57.147Z,18.50
2018-09-05T06:18:25.472Z,18.50
2018-09-05T06:20:53.795Z,18.60
2018-09-05T06:23:22.110Z,18.60
2018-09-05T06:25:50.435Z,18.70
2018-09-05T06:28:19.006Z,18.70
2018-09-05T06:30:47.367Z,18.80
2018-09-05T06:33:15.640Z,18.80
2018-09-05T06:35:43.946Z,18.90
2018-09-05T06:38:12.285Z,18.90
2018-09-05T06:40:40.611Z,19.00
2018-09-05T06:43:09.010Z,19.00
2018-09-05T06:45:37.827Z,19.10
2018-09-05T06:48:06.120Z,19.20
2018-09-05T06:50:34.573Z,19.20
2018-09-05T06:53:02.859Z,19.20
2018-09-05T06:55:31.187Z,19.30
2018-09-05T06:57:59.880Z,19.30
2018-09-05T07:00:28.218Z,19.30
2018-09-05T07:02:56.555Z,19.40
2018-09-05T07:05:24.896Z,19.40
2018-09-05T07:07:53.216Z,19.50
2018-09-05T07:10:21.538Z,19.60
2018-09-05T07:12:49.831Z,19.70
2018-09-05T07:15:18.131Z,19.80
2018-09-05T07:17:46.428Z,19.90
2018-09-05T07:20:14.789Z,19.90
2018-09-05T07:22:43.130Z,20.00
2018-09-05T07:25:11.444Z,20.10
2018-09-05T07:27:39.851Z,20.20
2018-09-05T07:30:08.094Z,20.30
2018-09-05T07:32:36.367Z,20.30
2018-09-05T07:35:04.688Z,20.40
2018-09-05T07:37:33.014Z,20.50
2018-09-05T07:40:01.316Z,20.60
2018-09-05T07:42:29.611Z,20.70
2018-09-05T07:44:57.939Z,20.60
2018-09-05T07:47:26.241Z,20.60
2018-09-05T07:49:54.545Z,20.70
2018-09-05T07:52:22.851Z,20.80
2018-09-05T07:54:51.173Z,20.80
2018-09-05T07:57:19.510Z,20.80
2018-09-05T07:59:48.089Z,20.80
2018-09-05T08:02:23.259Z,20.90
2018-09-05T08:04:51.615Z,21.00
2018-09-05T08:07:19.938Z,21.10
2018-09-05T08:09:48.235Z,21.20
2018-09-05T08:12:16.602Z,21.30
2018-09-05T08:14:44.947Z,21.30
2018-09-05T08:17:13.226Z,21.40
2018-09-05T08:19:41.516Z,21.40
2018-09-05T08:22:10.600Z,21.50
2018-09-05T08:24:38.960Z,21.60
2018-09-05T08:27:07.277Z,21.70
2018-09-05T08:29:35.682Z,21.80
2018-09-05T08:32:03.993Z,21.80
2018-09-05T08:34:32.268Z,21.90
2018-09-05T08:37:01.452Z,22.00
2018-09-05T08:39:29.431Z,22.20
2018-09-05T08:41:57.852Z,22.20
2018-09-05T08:44:26.396Z,22.30
2018-09-05T08:46:54.641Z,22.40
2018-09-05T08:49:22.885Z,22.50
2018-09-05T08:51:51.188Z,22.60
2018-09-05T08:54:19.472Z,22.70
2018-09-05T08:56:47.800Z,22.70
2018-09-05T08:59:16.120Z,22.80
2018-09-05T09:01:44.456Z,22.90
2018-09-05T09:04:12.752Z,23.00
2018-09-05T09:06:41.080Z,23.10
2018-09-05T09:09:10.821Z,23.10
2018-09-05T09:18:38.418Z,23.30
2018-09-05T09:21:06.736Z,23.40
2018-09-05T09:23:35.050Z,23.50
2018-09-05T09:26:03.349Z,23.60
2018-09-05T09:28:31.651Z,23.70
2018-09-05T09:30:59.952Z,23.80
2018-09-05T09:33:28.252Z,23.80
2018-09-05T09:35:56.555Z,23.80
2018-09-05T09:38:24.848Z,23.90
2018-09-05T09:40:53.134Z,24.00
2018-09-05T09:43:21.539Z,24.00
2018-09-05T09:45:49.829Z,24.10
2018-09-05T09:48:18.164Z,24.10
2018-09-05T09:50:46.464Z,24.20
2018-09-05T09:53:14.804Z,24.30
2018-09-05T09:55:43.088Z,24.40
2018-09-05T09:58:11.428Z,24.50
2018-09-05T10:00:45.229Z,24.50
2018-09-05T10:03:19.068Z,24.60
2018-09-05T10:06:26.066Z,24.60
2018-09-05T10:08:59.991Z,24.70
2018-09-05T10:11:33.762Z,24.80
2018-09-05T10:14:07.552Z,24.90
2018-09-05T10:16:40.439Z,24.90
2018-09-05T10:19:10.868Z,25.00
2018-09-05T10:21:39.139Z,25.00
2018-09-05T10:24:07.478Z,25.10
2018-09-05T10:26:35.971Z,25.20
2018-09-05T10:29:04.329Z,25.30
2018-09-05T10:31:32.700Z,25.30
2018-09-05T10:34:00.959Z,25.30
2018-09-05T10:36:29.299Z,25.40
2018-09-05T10:38:57.616Z,25.50
2018-09-05T10:41:25.981Z,25.50
2018-09-05T10:43:54.316Z,25.50
2018-09-05T10:46:22.620Z,25.70
2018-09-05T10:48:50.955Z,25.70
2018-09-05T10:51:23.727Z,25.90
2018-09-05T10:53:52.040Z,26.00
2018-09-05T10:56:23.418Z,26.00
2018-09-05T10:58:51.717Z,26.10
2018-09-05T11:01:20.124Z,26.20
2018-09-05T11:03:48.443Z,26.20
2018-09-05T11:06:16.781Z,26.30
2018-09-05T11:08:45.130Z,26.30
2018-09-05T11:11:13.424Z,26.40
2018-09-05T11:13:41.742Z,26.50
2018-09-05T11:16:10.041Z,26.60
2018-09-05T11:18:38.365Z,26.60
2018-09-05T11:21:06.751Z,26.70
2018-09-05T11:23:35.061Z,26.70
2018-09-05T11:26:03.350Z,26.80
2018-09-05T11:28:31.695Z,26.90
2018-09-05T11:31:00.003Z,26.90
2018-09-05T11:36:03.032Z,27.10
2018-09-05T11:38:31.341Z,27.10
2018-09-05T11:40:59.719Z,27.20
2018-09-05T11:43:28.128Z,27.20
2018-09-05T11:45:56.420Z,27.30
2018-09-05T11:48:24.733Z,27.40
2018-09-05T11:50:53.048Z,27.50
2018-09-05T11:53:21.352Z,27.50
2018-09-05T11:55:49.613Z,27.60
2018-09-05T11:58:17.915Z,27.60
2018-09-05T12:00:46.218Z,27.70
2018-09-05T12:03:14.551Z,27.80
2018-09-05T12:05:42.829Z,27.80
2018-09-05T12:08:11.196Z,27.90
2018-09-05T12:10:39.494Z,27.90
2018-09-05T12:13:07.800Z,27.90
2018-09-05T12:15:36.142Z,28.00
2018-09-05T12:18:04.436Z,28.00
2018-09-05T12:20:32.716Z,28.10
2018-09-05T12:23:01.048Z,28.10
2018-09-05T12:25:29.371Z,28.10
2018-09-05T12:27:57.690Z,28.10
2018-09-05T12:30:25.959Z,28.10
2018-09-05T12:32:54.216Z,28.20
2018-09-05T12:35:22.520Z,28.20
2018-09-05T12:37:50.826Z,28.30
2018-09-05T12:40:19.174Z,28.30
2018-09-05T12:42:47.473Z,28.30
2018-09-05T12:45:15.797Z,28.40
2018-09-05T12:47:44.106Z,28.50
2018-09-05T12:50:12.420Z,28.60
2018-09-05T12:52:40.700Z,28.70
2018-09-05T12:55:09.017Z,28.70
2018-09-05T12:57:37.317Z,28.70
2018-09-05T13:00:05.727Z,28.70
2018-09-05T13:02:34.080Z,28.70
2018-09-05T13:05:03.784Z,28.90
2018-09-05T13:07:32.035Z,28.80
2018-09-05T13:10:00.363Z,28.90
2018-09-05T13:12:28.681Z,29.00
2018-09-05T13:14:56.971Z,29.20
2018-09-05T13:17:25.263Z,29.30
2018-09-05T13:19:53.585Z,29.40
2018-09-05T13:22:21.856Z,29.50
2018-09-05T13:24:50.184Z,29.60
2018-09-05T13:27:18.474Z,29.70
2018-09-05T13:29:46.770Z,29.80
2018-09-05T13:32:15.047Z,29.80
2018-09-05T13:34:43.365Z,29.80
2018-09-05T13:37:11.674Z,29.90
2018-09-05T13:39:39.990Z,30.00
2018-09-05T13:42:08.340Z,30.30
2018-09-05T13:44:36.646Z,30.30
2018-09-05T13:47:04.948Z,30.50
2018-09-05T13:49:33.238Z,30.90
2018-09-05T13:52:04.713Z,31.00
2018-09-05T13:54:34.345Z,31.20
2018-09-05T13:57:02.791Z,31.60
2018-09-05T13:59:31.504Z,31.60
2018-09-05T14:01:59.807Z,31.80
2018-09-05T14:04:28.115Z,31.50
2018-09-05T14:06:56.401Z,31.20
2018-09-05T14:09:24.787Z,31.10
2018-09-05T14:11:53.079Z,31.30
2018-09-05T14:14:21.910Z,31.70
2018-09-05T14:16:50.176Z,32.00
2018-09-05T14:19:18.453Z,32.20
2018-09-05T14:21:46.754Z,32.60
2018-09-05T14:24:15.074Z,33.00
2018-09-05T14:26:43.376Z,32.90
2018-09-05T14:29:11.696Z,33.30
2018-09-05T14:31:40.022Z,33.70
2018-09-05T14:34:08.366Z,33.60
2018-09-05T14:36:36.704Z,34.10
2018-09-05T14:39:07.482Z,34.20
2018-09-05T14:41:35.766Z,34.40
2018-09-05T14:44:04.106Z,34.40
2018-09-05T14:46:32.395Z,34.50
2018-09-05T14:49:00.680Z,34.70
2018-09-05T14:51:28.982Z,35.00
2018-09-05T14:53:57.283Z,35.10
2018-09-05T14:56:25.587Z,35.30
2018-09-05T14:58:53.868Z,35.50
2018-09-05T15:01:22.193Z,35.80
2018-09-05T15:03:50.500Z,36.30
2018-09-05T15:06:19.032Z,36.70
2018-09-05T15:08:47.582Z,37.20
2018-09-05T15:11:15.885Z,37.40
2018-09-05T15:13:44.173Z,37.90
2018-09-05T15:16:12.834Z,38.10
2018-09-05T15:18:41.450Z,38.30
2018-09-05T15:21:09.740Z,38.50
2018-09-05T15:23:38.054Z,38.80
2018-09-05T15:26:06.403Z,39.10
2018-09-05T15:28:34.770Z,39.30
2018-09-05T15:31:03.123Z,39.40
2018-09-05T15:33:31.432Z,39.70
2018-09-05T15:35:59.792Z,39.10
2018-09-05T15:38:28.158Z,39.10
2018-09-05T15:40:56.457Z,39.10
2018-09-05T15:43:25.096Z,39.60
2018-09-05T15:45:53.415Z,39.70
2018-09-05T15:48:21.713Z,39.90
2018-09-05T15:50:50.028Z,40.00
2018-09-05T15:53:18.699Z,39.90
2018-09-05T15:55:47.115Z,39.50
2018-09-05T15:58:15.406Z,38.90
2018-09-05T16:00:43.723Z,37.80
2018-09-05T16:03:12.036Z,37.30
2018-09-05T16:05:40.364Z,36.50
2018-09-05T16:08:09.104Z,35.60
2018-09-05T16:10:37.991Z,35.10
2018-09-05T16:13:06.563Z,34.40
2018-09-05T16:15:35.153Z,34.10
2018-09-05T16:18:03.260Z,33.90
2018-09-05T16:20:37.999Z,33.70
2018-09-05T16:23:06.538Z,33.50
2018-09-05T16:25:34.859Z,32.90
2018-09-05T16:28:03.162Z,32.70
2018-09-05T16:30:31.486Z,32.60
2018-09-05T16:32:59.767Z,32.40
2018-09-05T16:35:28.161Z,32.20
2018-09-05T16:37:56.407Z,31.90
2018-09-05T16:40:24.740Z,31.70
2018-09-05T16:42:53.057Z,31.80
2018-09-05T16:45:21.495Z,31.70
2018-09-05T16:47:49.806Z,31.50
2018-09-05T16:50:18.106Z,31.40
2018-09-05T16:52:46.383Z,31.20
2018-09-05T16:55:14.694Z,31.10
2018-09-05T16:57:42.987Z,31.20
2018-09-05T17:00:11.323Z,30.90
2018-09-05T17:02:39.626Z,30.80
2018-09-05T17:05:07.937Z,30.80
2018-09-05T17:07:36.193Z,30.80
2018-09-05T17:10:04.557Z,30.60
2018-09-05T17:12:32.869Z,30.50
2018-09-05T17:15:01.334Z,30.40
2018-09-05T17:17:29.643Z,30.20
2018-09-05T17:19:57.975Z,30.10
2018-09-05T17:22:26.311Z,29.90
2018-09-05T17:24:54.658Z,29.70
2018-09-05T17:27:23.032Z,29.60
2018-09-05T17:29:51.340Z,29.40
2018-09-05T17:32:19.660Z,29.30
2018-09-05T17:34:47.975Z,29.10
2018-09-05T17:37:16.319Z,29.00
2018-09-05T17:39:44.636Z,28.70
2018-09-05T17:42:12.999Z,28.70
2018-09-05T17:44:41.307Z,28.60
2018-09-05T17:47:09.632Z,28.40
2018-09-05T17:49:37.941Z,28.30
2018-09-05T17:52:06.327Z,28.20
2018-09-05T17:54:34.598Z,28.10
2018-09-05T17:57:02.891Z,28.00
2018-09-05T17:59:31.196Z,27.90
2018-09-05T18:01:59.546Z,27.80
2018-09-05T18:04:27.843Z,27.70
2018-09-05T18:06:56.179Z,27.60
2018-09-05T18:09:24.472Z,27.60
2018-09-05T18:11:52.866Z,27.50
2018-09-05T18:14:21.166Z,27.50
2018-09-05T18:16:49.491Z,27.30
2018-09-05T18:19:17.877Z,27.20
2018-09-05T18:21:46.192Z,27.20
2018-09-05T18:24:14.595Z,27.10
2018-09-05T18:26:42.890Z,27.10
2018-09-05T18:29:11.191Z,26.90
2018-09-05T18:31:39.512Z,26.90
2018-09-05T18:34:07.801Z,26.80
2018-09-05T18:36:36.131Z,26.70
2018-09-05T18:39:06.282Z,26.60
2018-09-05T18:41:34.613Z,26.60
2018-09-05T18:44:02.936Z,26.50
2018-09-05T18:46:31.332Z,26.50
2018-09-05T18:48:59.735Z,26.50
2018-09-05T18:51:28.036Z,26.40
2018-09-05T18:53:56.410Z,26.40
2018-09-05T18:56:24.751Z,26.20
2018-09-05T18:58:53.073Z,26.10
2018-09-05T19:01:21.500Z,26.00
2018-09-05T19:03:49.804Z,26.10
2018-09-05T19:06:18.144Z,26.00
2018-09-05T19:08:46.447Z,25.90
2018-09-05T19:11:14.872Z,25.90
2018-09-05T19:13:43.181Z,25.80
2018-09-05T19:16:11.564Z,25.80
2018-09-05T19:18:39.916Z,25.70
2018-09-05T19:21:08.206Z,25.70
2018-09-05T19:23:36.698Z,25.60
2018-09-05T19:26:05.039Z,25.50
2018-09-05T19:28:33.357Z,25.50
2018-09-05T19:31:01.633Z,25.40
2018-09-05T19:33:29.963Z,25.30
2018-09-05T19:35:58.243Z,25.30
2018-09-05T19:38:26.687Z,25.20
2018-09-05T19:40:55.039Z,25.20
2018-09-05T19:43:23.411Z,25.10
2018-09-05T19:45:51.690Z,25.10
2018-09-05T19:48:20.091Z,25.10
2018-09-05T19:50:48.393Z,25.00
2018-09-05T19:53:16.737Z,24.90
2018-09-05T19:55:45.046Z,24.90
2018-09-05T19:58:19.945Z,24.90
2018-09-05T20:00:48.273Z,24.80
2018-09-05T20:03:16.611Z,24.70
2018-09-05T20:05:44.916Z,24.60
2018-09-05T20:08:13.485Z,24.50
2018-09-05T20:10:41.787Z,24.50
2018-09-05T20:13:10.179Z,24.40
2018-09-05T20:15:38.590Z,24.40
2018-09-05T20:18:07.201Z,24.30
2018-09-05T20:20:35.991Z,24.20
2018-09-05T20:23:04.370Z,24.20
2018-09-05T20:25:33.038Z,24.20
2018-09-05T20:28:01.386Z,24.10
2018-09-05T20:30:29.767Z,24.00
2018-09-05T20:32:58.139Z,23.90
2018-09-05T20:35:26.581Z,23.80
2018-09-05T20:37:59.044Z,23.80
2018-09-05T20:40:27.521Z,23.80
2018-09-05T20:42:55.927Z,23.70
2018-09-05T20:45:24.360Z,23.60
2018-09-05T20:47:52.730Z,23.60
2018-09-05T20:50:21.802Z,23.50
2018-09-05T20:52:50.805Z,23.50
2018-09-05T20:55:19.157Z,23.50
2018-09-05T20:57:47.580Z,23.40
2018-09-05T21:00:15.942Z,23.40
2018-09-05T21:02:44.941Z,23.30
2018-09-05T21:05:13.943Z,23.30
2018-09-05T21:07:42.327Z,23.20
2018-09-05T21:10:10.756Z,23.20
2018-09-05T21:12:39.088Z,23.20
2018-09-05T21:15:07.390Z,23.10
2018-09-05T21:17:37.071Z,23.10
2018-09-05T21:20:06.469Z,23.00
2018-09-05T21:22:36.110Z,23.00
2018-09-05T21:25:05.163Z,22.90
2018-09-05T21:27:34.036Z,22.90
2018-09-05T21:30:02.442Z,22.80
2018-09-05T21:32:30.776Z,22.80
2018-09-05T21:34:59.350Z,22.80
2018-09-05T21:37:28.357Z,22.80
2018-09-05T21:39:56.864Z,22.70
2018-09-05T21:42:25.983Z,22.60
2018-09-05T21:44:54.780Z,22.60
2018-09-05T21:47:23.247Z,22.60
2018-09-05T21:49:51.610Z,22.60
2018-09-05T21:52:20.020Z,22.60
2018-09-05T21:54:48.368Z,22.50
2018-09-05T21:57:17.482Z,22.40
2018-09-05T21:59:45.791Z,22.40
2018-09-05T22:02:14.133Z,22.40
2018-09-05T22:04:42.559Z,22.30
2018-09-05T22:07:11.220Z,22.30
2018-09-05T22:09:39.686Z,22.20
2018-09-05T22:12:08.147Z,22.20
2018-09-05T22:14:36.592Z,22.10
2018-09-05T22:17:04.970Z,22.10
2018-09-05T22:19:33.356Z,22.00
2018-09-05T22:22:01.835Z,22.00
2018-09-05T22:24:30.208Z,21.90
2018-09-05T22:26:58.583Z,21.80
2018-09-05T22:29:26.937Z,21.80
2018-09-05T22:31:56.160Z,21.80
2018-09-05T22:34:24.514Z,21.70
2018-09-05T22:36:52.817Z,21.60
2018-09-05T22:39:21.188Z,21.60
2018-09-05T22:41:49.501Z,21.60
2018-09-05T22:44:29.162Z,21.50
2018-09-05T22:47:08.815Z,21.50
2018-09-05T22:51:05.814Z,21.40
2018-09-05T22:55:56.765Z,21.40
2018-09-05T23:00:45.899Z,21.40
2018-09-05T23:04:26.256Z,21.30
2018-09-05T23:07:37.960Z,21.20
2018-09-05T23:10:17.913Z,21.20
2018-09-05T23:12:57.658Z,21.10
2018-09-05T23:15:37.299Z,21.10
2018-09-05T23:18:17.785Z,21.00
2018-09-05T23:21:00.633Z,21.00
2018-09-05T23:23:40.612Z,21.00
2018-09-05T23:26:09.197Z,21.00
2018-09-05T23:28:38.224Z,20.90
2018-09-05T23:31:06.587Z,20.90
2018-09-05T23:33:35.761Z,20.90
2018-09-05T23:36:04.663Z,20.90
2018-09-05T23:38:33.007Z,20.80
2018-09-05T23:41:01.385Z,20.80
2018-09-05T23:43:29.740Z,20.70
2018-09-05T23:45:58.071Z,20.80
2018-09-05T23:48:26.534Z,20.70
2018-09-05T23:50:55.336Z,20.70
2018-09-05T23:53:23.791Z,20.70
2018-09-05T23:55:52.124Z,20.60
2018-09-05T23:58:20.482Z,20.60
